Time;durP1;ratioP1;P1;durP2;ratioP2;P2;SDS_P1;SDS_P2;PMS_P1;PMS_P2;Temp;Humidity;BMP_temperature;BMP_pressure;BME280_temperature;BME280_humidity;BME280_pressure;Samples;Min_cycle;Max_cycle;Signal;HPM_P1;HPM_P2
2022/01/18 00:01:19;;;;;;;1.92;1.20;;;;;;;2.92;85.27;100334.82;1835566;78;21067;-62
2022/01/18 00:03:47;;;;;;;4.28;1.35;;;;;;;2.96;86.14;100318.28;1836143;78;21622;-63
2022/01/18 00:06:16;;;;;;;3.55;1.40;;;;;;;3.01;86.58;100311.28;1836118;78;21075;-62
2022/01/18 00:08:45;;;;;;;2.30;1.10;;;;;;;3.02;86.59;100309.08;1836161;78;21551;-62
2022/01/18 00:11:16;;;;;;;6.37;1.80;;;;;;;3.05;86.96;100333.75;1836038;78;21501;-62
2022/01/18 00:13:47;;;;;;;6.17;1.60;;;;;;;3.13;87.00;100339.29;1836207;78;21084;-62
2022/01/18 00:19:08;;;;;;;2.45;1.45;;;;;;;3.16;86.96;100308.03;1796492;79;21103;-62
2022/01/18 00:24:16;;;;;;;4.25;1.72;;;;;;;3.19;87.39;100313.17;1810935;79;21133;-61
2022/01/18 00:26:45;;;;;;;4.05;1.40;;;;;;;3.18;87.67;100293.25;1822425;78;21501;-64
2022/01/18 00:29:16;;;;;;;4.25;1.70;;;;;;;3.18;87.93;100322.72;1836374;78;21122;-59
2022/01/18 00:34:31;;;;;;;4.33;1.35;;;;;;;3.17;88.19;100339.66;1836231;78;21635;-60
2022/01/18 00:36:59;;;;;;;3.72;1.85;;;;;;;3.17;88.12;100308.44;1834294;78;21071;-63
2022/01/18 00:39:24;;;;;;;5.67;2.20;;;;;;;3.18;88.33;100262.03;1833769;78;21031;-60
2022/01/18 00:41:53;;;;;;;4.90;2.65;;;;;;;3.14;88.19;100328.02;1833553;78;21469;-60
2022/01/18 00:44:22;;;;;;;7.08;2.45;;;;;;;3.11;87.74;100302.03;1846862;77;21090;-60
2022/01/18 00:46:52;;;;;;;5.72;2.20;;;;;;;3.06;87.70;100302.09;1856447;77;21145;-62
2022/01/18 00:49:20;;;;;;;4.55;1.70;;;;;;;3.04;87.80;100308.64;1856533;77;21488;-61
2022/01/18 00:51:55;;;;;;;4.65;1.80;;;;;;;3.06;88.22;100301.67;1856505;77;21449;-61
2022/01/18 00:54:29;;;;;;;4.65;2.00;;;;;;;3.07;88.18;100318.13;1856342;77;21091;-61
2022/01/18 00:56:54;;;;;;;7.83;3.12;;;;;;;3.07;88.23;100318.13;1855592;77;21074;-62
2022/01/18 00:59:23;;;;;;;6.90;2.30;;;;;;;3.09;88.46;100273.44;1856181;77;21117;-62
2022/01/18 01:01:52;;;;;;;8.08;2.77;;;;;;;3.05;88.29;100323.34;1856280;77;21050;-63
2022/01/18 01:04:25;;;;;;;7.03;2.50;;;;;;;3.04;88.37;100332.05;1856193;77;21063;-59
2022/01/18 01:06:51;;;;;;;6.72;2.12;;;;;;;2.99;88.06;100318.66;1856339;76;21144;-62
2022/01/18 01:09:20;;;;;;;4.75;2.22;;;;;;;2.92;88.34;100285.86;1856305;77;21047;-60
2022/01/18 01:11:50;;;;;;;5.83;1.72;;;;;;;2.84;88.40;100304.14;1856094;77;21148;-60
2022/01/18 01:14:22;;;;;;;5.80;2.25;;;;;;;2.80;88.42;100318.08;1856202;77;21516;-60
2022/01/18 01:19:45;;;;;;;8.68;1.90;;;;;;;2.77;88.92;100298.64;1826355;77;21079;-60
2022/01/18 01:36:03;;;;;;;3.55;1.07;;;;;;;2.79;89.83;100248.77;1826369;78;21060;-61
2022/01/18 01:44:02;;;;;;;1.02;0.70;;;;;;;2.63;89.93;100306.16;1825809;77;21079;-62
2022/01/18 01:46:19;;;;;;;0.80;0.80;;;;;;;2.62;90.17;100262.88;1818574;79;21064;-64
2022/01/18 01:48:53;;;;;;;1.95;0.72;;;;;;;2.64;90.36;100274.11;1820813;78;21111;-63
2022/01/18 01:51:20;;;;;;;2.92;1.20;;;;;;;2.66;90.56;100242.45;1819991;78;21209;-64
2022/01/18 01:53:49;;;;;;;2.02;1.17;;;;;;;2.66;90.76;100209.95;1834956;78;21164;-62
2022/01/18 01:56:18;;;;;;;1.00;0.70;;;;;;;2.68;90.83;100222.94;1846339;77;21598;-64
2022/01/18 01:58:47;;;;;;;1.27;0.65;;;;;;;2.72;90.97;100232.84;1841936;78;21079;-64
2022/01/18 02:01:16;;;;;;;1.80;0.70;;;;;;;2.76;91.09;100215.01;1846546;78;21086;-64
2022/01/18 02:03:46;;;;;;;1.27;0.90;;;;;;;2.77;91.12;100197.24;1846756;77;21050;-64
2022/01/18 02:06:15;;;;;;;2.17;0.65;;;;;;;2.81;91.16;100208.00;1845897;78;21109;-66
2022/01/18 02:08:44;;;;;;;0.60;0.60;;;;;;;2.81;91.21;100191.10;1846693;77;21490;-62
2022/01/18 02:11:13;;;;;;;1.45;0.70;;;;;;;2.80;91.30;100195.88;1846763;77;21117;-61
2022/01/18 02:13:43;;;;;;;1.15;0.75;;;;;;;2.79;91.36;100200.67;1846515;78;21113;-63
2022/01/18 02:16:19;;;;;;;2.15;0.78;;;;;;;2.77;91.47;100192.89;1847287;77;21064;-62
2022/01/18 02:21:47;;;;;;;1.10;0.65;;;;;;;2.80;91.61;100197.17;1845810;78;21591;-61
2022/01/18 02:24:18;;;;;;;1.45;0.80;;;;;;;2.82;91.68;100164.20;1846539;78;21067;-61
2022/01/18 02:26:47;;;;;;;1.22;0.85;;;;;;;2.82;91.75;100170.70;1846523;77;21059;-62
2022/01/18 02:29:16;;;;;;;1.07;0.82;;;;;;;2.83;91.80;100151.63;1845796;78;21075;-63
2022/01/18 02:31:45;;;;;;;2.95;0.70;;;;;;;2.83;91.85;100168.08;1846507;77;21446;-63
2022/01/18 02:34:19;;;;;;;2.65;1.10;;;;;;;2.85;91.94;100155.06;1846672;77;21075;-63
2022/01/18 02:36:48;;;;;;;1.35;0.82;;;;;;;2.85;92.00;100135.11;1846776;77;21027;-62
2022/01/18 02:39:22;;;;;;;2.87;1.12;;;;;;;2.83;91.87;100123.03;1846567;76;21055;-62
2022/01/18 02:41:56;;;;;;;2.60;1.45;;;;;;;2.87;92.17;100135.09;1846802;77;21117;-62
2022/01/18 02:44:26;;;;;;;2.50;1.50;;;;;;;2.91;92.19;100128.94;1846566;77;21063;-62
2022/01/18 02:46:55;;;;;;;1.67;1.00;;;;;;;2.91;92.27;100110.73;1847432;77;21055;-64
2022/01/18 02:49:24;;;;;;;3.20;1.62;;;;;;;2.91;92.33;100105.53;1846489;77;21141;-63
2022/01/18 02:51:54;;;;;;;6.60;2.20;;;;;;;2.95;92.36;100113.73;1846520;76;21555;-63
2022/01/18 02:54:22;;;;;;;4.70;1.98;;;;;;;2.94;92.18;100111.14;1849270;77;21516;-63
2022/01/18 02:56:58;;;;;;;3.27;1.60;;;;;;;2.95;92.16;100067.34;1849991;77;21066;-62
2022/01/18 03:05:13;;;;;;;4.67;2.17;;;;;;;2.96;92.01;100098.52;1849437;76;21040;-62
2022/01/18 03:07:42;;;;;;;4.30;1.92;;;;;;;2.96;91.76;100068.61;1848372;77;21114;-62
2022/01/18 03:10:13;;;;;;;4.80;2.05;;;;;;;2.99;91.97;100078.09;1848620;77;21454;-62
2022/01/18 03:12:42;;;;;;;7.00;3.22;;;;;;;3.01;92.12;100023.87;1848439;77;21051;-63
2022/01/18 03:15:11;;;;;;;7.67;3.47;;;;;;;3.02;92.00;100037.73;1847557;77;21083;-62
2022/01/18 03:17:40;;;;;;;6.35;3.77;;;;;;;3.04;92.01;100048.53;1847731;77;21043;-63
2022/01/18 03:20:12;;;;;;;6.17;3.17;;;;;;;3.03;91.80;100049.86;1846241;77;21201;-62
2022/01/18 03:22:41;;;;;;;3.72;2.10;;;;;;;3.03;91.75;100081.92;1846778;77;21518;-63
2022/01/18 03:25:27;;;;;;;5.35;2.80;;;;;;;3.04;91.78;100062.84;1846769;77;21540;-62
2022/01/18 03:28:07;;;;;;;5.95;1.92;;;;;;;3.04;91.60;100062.84;1847973;77;21583;-61
2022/01/18 03:30:38;;;;;;;5.65;2.42;;;;;;;3.08;91.71;100049.30;1847511;77;21137;-63
2022/01/18 03:33:09;;;;;;;6.22;1.87;;;;;;;3.11;91.83;100065.31;1848717;77;21232;-62
2022/01/18 03:35:38;;;;;;;3.52;1.98;;;;;;;3.11;91.86;100093.48;1848895;77;21493;-63
2022/01/18 03:38:08;;;;;;;2.60;1.30;;;;;;;3.09;91.96;100082.24;1848623;76;21129;-65
2022/01/18 03:40:37;;;;;;;2.30;1.47;;;;;;;3.07;91.91;100114.78;1847969;77;21051;-61
2022/01/18 03:43:10;;;;;;;2.70;1.77;;;;;;;3.11;91.99;100125.14;1848515;77;21051;-62
2022/01/18 03:45:41;;;;;;;3.45;1.60;;;;;;;3.14;92.05;100088.67;1847500;76;21164;-61
2022/01/18 03:48:15;;;;;;;4.62;2.02;;;;;;;3.17;92.10;100120.70;1849039;77;21075;-60
2022/01/18 03:50:43;;;;;;;4.55;1.62;;;;;;;3.21;92.15;100143.16;1849284;77;21055;-59
2022/01/18 03:53:12;;;;;;;3.87;1.55;;;;;;;3.25;92.23;100140.06;1848263;76;21070;-60
2022/01/18 03:55:41;;;;;;;5.40;1.20;;;;;;;3.29;92.26;100156.02;1846484;77;21598;-60
2022/01/18 03:58:09;;;;;;;2.77;1.70;;;;;;;3.15;92.12;100141.10;1846669;77;21173;-60
2022/01/18 04:00:38;;;;;;;6.47;0.85;;;;;;;2.90;92.14;100164.50;1846526;76;21666;-61
2022/01/18 04:03:07;;;;;;;2.25;1.35;;;;;;;2.77;92.18;100146.55;1846443;78;21494;-60
2022/01/18 04:05:36;;;;;;;9.83;1.30;;;;;;;2.76;92.30;100108.41;1845968;76;21603;-62
2022/01/18 04:08:05;;;;;;;1.27;1.12;;;;;;;2.78;92.40;100130.89;1847316;77;21507;-60
2022/01/18 04:10:34;;;;;;;1.45;0.95;;;;;;;2.82;92.45;100129.10;1846633;77;21055;-60
2022/01/18 04:13:04;;;;;;;7.03;2.15;;;;;;;2.87;92.44;100124.69;1846516;77;21121;-61
2022/01/18 04:15:34;;;;;;;1.12;0.80;;;;;;;2.91;92.42;100118.54;1845858;78;21457;-62
2022/01/18 04:26:56;;;;;;;1.12;0.80;;;;;;;2.93;92.73;100133.67;1788409;76;21129;-61
2022/01/18 04:28:42;;;;;;;1.52;0.80;;;;;;;2.79;92.81;100134.38;1846710;76;21506;-60
2022/01/18 04:31:10;;;;;;;5.22;0.90;;;;;;;2.73;92.84;100104.56;1846696;77;21051;-61
2022/01/18 04:33:40;;;;;;;1.45;1.02;;;;;;;2.69;92.92;100116.75;1847193;77;21051;-63
2022/01/18 04:36:09;;;;;;;1.12;0.78;;;;;;;2.69;93.02;100108.95;1846492;77;21149;-63
2022/01/18 04:38:39;;;;;;;2.85;1.02;;;;;;;2.68;93.09;100117.20;1846997;77;21497;-63
2022/01/18 04:41:12;;;;;;;2.75;1.52;;;;;;;2.71;93.11;100104.58;1847267;77;21480;-63
2022/01/18 04:43:52;;;;;;;2.98;1.42;;;;;;;2.69;93.00;100100.73;1846524;77;21121;-60
2022/01/18 04:48:58;;;;;;;1.72;1.10;;;;;;;2.68;93.06;100112.45;1825746;78;21131;-62
2022/01/18 04:51:27;;;;;;;0.85;0.70;;;;;;;2.74;93.11;100116.23;1825653;78;21052;-63
2022/01/18 04:53:58;;;;;;;0.68;0.68;;;;;;;2.72;93.13;100097.66;1825656;78;21048;-61
2022/01/18 04:57:51;;;;;;;1.72;0.80;;;;;;;2.70;93.19;100098.53;1825786;78;21028;-62
2022/01/18 04:58:59;;;;;;;4.13;0.70;;;;;;;2.73;93.23;100086.36;1826685;78;21054;-62
2022/01/18 05:01:28;;;;;;;1.02;0.80;;;;;;;2.72;93.32;100078.16;1825811;78;21817;-60
2022/01/18 05:03:57;;;;;;;2.75;1.27;;;;;;;2.70;93.37;100058.23;1825824;78;21439;-61
2022/01/18 05:06:25;;;;;;;2.83;1.67;;;;;;;2.78;93.44;100075.45;1825801;78;21580;-60
2022/01/18 05:08:56;;;;;;;3.00;1.20;;;;;;;2.87;93.49;100097.38;1825797;78;21600;-60
2022/01/18 05:22:57;;;;;;;4.10;2.10;;;;;;;2.92;93.55;100099.47;2020812;69;21028;-61
2022/01/18 05:24:06;;;;;;;4.33;2.15;;;;;;;2.97;93.49;100105.87;2018361;69;21052;-61
2022/01/18 05:26:35;;;;;;;2.30;1.50;;;;;;;3.01;93.51;100084.14;2026209;70;21020;-62
2022/01/18 05:29:04;;;;;;;2.22;0.70;;;;;;;3.04;93.53;100080.17;2020213;69;21136;-60
2022/01/18 05:31:32;;;;;;;1.82;1.15;;;;;;;3.07;93.53;100088.77;2012331;69;21262;-61
2022/01/18 05:34:02;;;;;;;3.67;1.32;;;;;;;3.11;93.53;100091.33;2025439;69;21481;-61
2022/01/18 05:36:31;;;;;;;4.78;1.67;;;;;;;3.13;93.55;100101.25;2016350;69;21097;-61
2022/01/18 05:39:00;;;;;;;5.67;2.10;;;;;;;3.14;93.57;100088.67;2001451;69;21469;-61
2022/01/18 05:41:28;;;;;;;2.75;1.67;;;;;;;3.16;93.60;100090.80;2003274;70;21121;-61
2022/01/18 05:43:57;;;;;;;4.85;3.08;;;;;;;3.19;93.66;100095.92;2016857;69;21470;-63
2022/01/18 05:46:25;;;;;;;1.77;1.35;;;;;;;3.20;93.68;100092.45;2024361;70;21040;-61
2022/01/18 05:48:54;;;;;;;4.33;2.52;;;;;;;3.21;93.73;100095.45;2021792;69;21552;-61
2022/01/18 05:51:23;;;;;;;3.70;1.80;;;;;;;3.24;93.75;100057.67;2009545;69;21109;-60
2022/01/18 05:53:51;;;;;;;4.92;1.75;;;;;;;3.13;93.67;100086.95;1993299;69;21141;-59
2022/01/18 05:56:20;;;;;;;4.17;1.50;;;;;;;3.04;93.75;100077.56;1984488;70;21071;-61
2022/01/18 05:58:49;;;;;;;3.27;1.10;;;;;;;2.98;93.80;100062.94;1986066;70;21051;-60
2022/01/18 06:01:27;;;;;;;4.30;1.40;;;;;;;2.96;93.82;100062.11;2006339;70;21116;-61
2022/01/18 06:04:09;;;;;;;;;;;;;;;2.92;93.82;100061.76;2003976;70;21576;-60
2022/01/18 06:19:51;;;;;;;6.08;3.60;;;;;;;3.63;93.95;100080.75;1959062;73;22129;-59
2022/01/18 06:22:20;;;;;;;4.45;2.80;;;;;;;3.64;93.82;100092.01;1915829;75;21124;-59
2022/01/18 06:24:49;;;;;;;3.35;2.40;;;;;;;3.62;93.72;100089.43;1916500;75;21129;-59
2022/01/18 06:27:18;;;;;;;4.10;2.20;;;;;;;3.54;93.59;100090.47;1894521;75;21105;-59
2022/01/18 06:29:47;;;;;;;5.45;3.22;;;;;;;3.31;93.38;100097.00;1885731;75;21041;-59
2022/01/18 06:32:16;;;;;;;2.40;1.77;;;;;;;2.96;93.05;100064.71;1885797;76;21061;-58
2022/01/18 06:34:45;;;;;;;4.33;2.30;;;;;;;2.76;92.81;100085.87;1885586;76;21147;-58
2022/01/18 06:37:13;;;;;;;10.55;2.17;;;;;;;2.75;92.76;100075.48;1885532;76;21088;-59
2022/01/18 06:39:42;;;;;;;2.05;1.30;;;;;;;2.76;92.67;100077.22;1885725;75;21137;-61
2022/01/18 06:42:12;;;;;;;1.57;1.12;;;;;;;2.75;92.66;100095.87;1885884;76;21134;-58
2022/01/18 06:44:41;;;;;;;1.10;0.98;;;;;;;2.75;92.72;100118.39;1885718;76;21117;-58
2022/01/18 06:47:10;;;;;;;1.20;0.72;;;;;;;2.70;92.52;100082.94;1885726;76;21055;-60
2022/01/18 06:49:39;;;;;;;1.82;0.90;;;;;;;2.69;92.43;100094.66;1897506;75;21442;-61
2022/01/18 06:52:08;;;;;;;0.95;0.70;;;;;;;2.73;92.41;100105.86;1891349;75;21014;-59
2022/01/18 06:54:37;;;;;;;1.30;0.80;;;;;;;2.75;92.26;100102.78;1888163;75;21129;-61
2022/01/18 06:57:06;;;;;;;1.82;0.85;;;;;;;2.83;92.25;100104.83;1914501;75;21000;-61
2022/01/18 06:59:35;;;;;;;14.47;8.33;;;;;;;2.90;92.25;100092.14;1917978;74;21493;-58
2022/01/18 07:02:05;;;;;;;14.50;9.83;;;;;;;2.97;92.21;100106.75;1896068;75;21035;-60
2022/01/18 07:04:34;;;;;;;2.00;1.40;;;;;;;3.03;92.22;100111.83;1886417;75;21066;-59
2022/01/18 07:07:04;;;;;;;2.70;1.30;;;;;;;3.12;92.24;100108.63;1899190;75;21188;-60
2022/01/18 07:09:32;;;;;;;2.20;1.00;;;;;;;3.16;92.22;100101.20;1916540;75;21016;-60
2022/01/18 07:12:07;;;;;;;4.97;1.00;;;;;;;3.20;92.17;100113.27;1916295;75;21106;-60
2022/01/18 07:14:31;;;;;;;1.65;0.98;;;;;;;3.20;92.13;100127.58;1917569;74;21008;-61
2022/01/18 07:17:00;;;;;;;2.52;1.30;;;;;;;3.24;92.11;100146.14;1918128;75;21122;-61
2022/01/18 07:19:32;;;;;;;3.02;2.00;;;;;;;3.24;92.05;100160.45;1911225;74;21072;-59
2022/01/18 07:22:01;;;;;;;3.37;1.57;;;;;;;3.06;91.85;100183.31;1905938;74;21122;-59
2022/01/18 07:24:43;;;;;;;2.95;1.50;;;;;;;2.85;91.62;100175.41;1905886;75;21020;-59
2022/01/18 07:27:09;;;;;;;0.90;0.80;;;;;;;2.66;91.40;100190.91;1901600;74;21137;-60
2022/01/18 07:29:40;;;;;;;2.20;1.20;;;;;;;2.53;91.29;100186.33;1873135;76;20996;-60
2022/01/18 07:32:11;;;;;;;1.27;1.15;;;;;;;2.42;91.09;100193.43;1872779;77;21038;-61
2022/01/18 07:34:46;;;;;;;3.20;1.35;;;;;;;2.31;91.00;100210.02;1879510;75;20996;-62
2022/01/18 07:37:10;;;;;;;1.77;1.07;;;;;;;2.22;90.95;100230.92;1872337;76;21129;-58
2022/01/18 07:39:39;;;;;;;2.05;1.20;;;;;;;2.17;90.90;100234.45;1872664;76;21498;-59
2022/01/18 07:42:08;;;;;;;2.10;1.40;;;;;;;2.09;90.83;100234.11;1872783;77;21036;-59
2022/01/18 07:44:37;;;;;;;2.40;1.50;;;;;;;2.07;90.82;100229.83;1874957;75;21106;-62
2022/01/18 07:47:05;;;;;;;2.40;1.70;;;;;;;2.03;90.72;100244.58;1872805;76;21008;-63
2022/01/18 07:49:34;;;;;;;2.45;1.32;;;;;;;2.04;90.67;100263.61;1872734;77;21048;-61
2022/01/18 07:52:03;;;;;;;2.37;1.45;;;;;;;2.05;90.52;100282.23;1872757;77;21113;-61
2022/01/18 07:54:32;;;;;;;1.92;1.12;;;;;;;2.04;90.50;100294.77;1872798;76;21190;-59
2022/01/18 07:57:01;;;;;;;3.20;1.37;;;;;;;1.95;90.55;100294.43;1874995;75;21066;-60
2022/01/18 07:59:29;;;;;;;2.15;1.37;;;;;;;1.98;90.64;100301.34;1872763;77;21513;-59
2022/01/18 08:01:58;;;;;;;5.90;2.65;;;;;;;2.07;90.66;100297.35;1893878;75;21032;-68
2022/01/18 08:04:27;;;;;;;2.92;1.80;;;;;;;2.16;90.66;100310.23;1905476;75;21044;-60
2022/01/18 08:06:56;;;;;;;3.10;1.75;;;;;;;2.25;90.62;100317.92;1905110;75;21465;-59
2022/01/18 08:09:24;;;;;;;2.22;1.65;;;;;;;2.30;90.74;100312.20;1905205;75;21493;-62
2022/01/18 08:11:53;;;;;;;2.00;1.22;;;;;;;2.33;90.84;100310.03;1902865;75;21154;-63
2022/01/18 08:14:24;;;;;;;1.80;1.17;;;;;;;2.40;90.85;100309.49;1905226;75;21029;-59
2022/01/18 08:17:04;;;;;;;1.20;1.00;;;;;;;2.41;90.89;100314.67;1905253;75;21106;-61
2022/01/18 08:19:35;;;;;;;1.20;1.10;;;;;;;2.44;90.82;100311.20;1910476;74;21521;-64
2022/01/18 08:22:04;;;;;;;1.35;1.00;;;;;;;2.39;90.80;100315.14;1924606;74;21082;-64
2022/01/18 08:24:33;;;;;;;0.88;0.80;;;;;;;2.40;90.76;100323.78;1924614;74;21532;-64
2022/01/18 08:27:02;;;;;;;2.55;1.10;;;;;;;2.37;90.76;100316.05;1922210;74;20992;-64
2022/01/18 08:29:30;;;;;;;0.57;0.57;;;;;;;2.30;90.82;100333.44;1922209;74;21445;-62
2022/01/18 08:31:59;;;;;;;1.17;0.80;;;;;;;2.24;90.73;100331.77;1893670;74;21478;-60
2022/01/18 08:34:28;;;;;;;1.20;0.70;;;;;;;2.14;90.65;100341.86;1891476;76;21027;-59
2022/01/18 08:36:57;;;;;;;2.02;1.07;;;;;;;2.11;90.56;100337.98;1893946;74;21096;-63
2022/01/18 08:39:25;;;;;;;3.00;1.27;;;;;;;2.08;90.49;100338.01;1897537;74;21473;-60
2022/01/18 08:41:55;;;;;;;2.00;1.17;;;;;;;2.06;90.58;100341.06;1891372;76;21564;-61
2022/01/18 08:44:24;;;;;;;3.02;1.57;;;;;;;2.11;90.53;100345.78;1891331;76;21201;-63
2022/01/18 08:46:53;;;;;;;2.70;1.90;;;;;;;2.17;90.61;100340.51;1891434;76;21035;-62
2022/01/18 08:49:21;;;;;;;2.67;1.90;;;;;;;2.24;90.68;100340.86;1906202;74;21008;-63
2022/01/18 08:51:50;;;;;;;2.67;1.92;;;;;;;2.28;90.79;100339.94;1896493;74;21540;-62
2022/01/18 08:54:20;;;;;;;2.67;1.80;;;;;;;2.34;90.75;100347.25;1893893;74;21489;-62
2022/01/18 08:56:48;;;;;;;3.75;2.20;;;;;;;2.37;90.69;100342.03;1924489;74;21527;-61
2022/01/18 08:59:17;;;;;;;3.52;1.92;;;;;;;2.42;90.61;100346.30;1924547;74;21164;-61
2022/01/18 09:01:46;;;;;;;1.70;1.57;;;;;;;2.45;90.60;100341.48;1924696;74;21571;-62
2022/01/18 09:04:14;;;;;;;3.33;2.15;;;;;;;2.41;90.55;100346.31;1922134;74;21501;-64
2022/01/18 09:06:47;;;;;;;2.80;1.62;;;;;;;2.38;90.54;100347.63;1924698;74;21032;-62
2022/01/18 09:09:16;;;;;;;2.60;1.77;;;;;;;2.37;90.53;100356.33;1924341;74;21074;-65
2022/01/18 09:11:45;;;;;;;3.08;1.90;;;;;;;2.36;90.57;100350.69;1924456;74;21199;-66
2022/01/18 09:14:15;;;;;;;3.15;1.90;;;;;;;2.37;90.61;100362.81;1904972;74;21087;-62
2022/01/18 09:16:44;;;;;;;2.45;1.77;;;;;;;2.38;90.57;100375.80;1891429;76;21203;-62
2022/01/18 09:19:13;;;;;;;2.72;1.82;;;;;;;2.38;90.55;100369.72;1891362;76;21126;-63
2022/01/18 09:21:43;;;;;;;2.80;1.67;;;;;;;2.38;90.53;100369.72;1883228;75;21111;-63
2022/01/18 09:24:11;;;;;;;2.47;1.72;;;;;;;2.37;90.46;100370.61;1888641;75;21089;-64
2022/01/18 09:26:40;;;;;;;1.57;1.30;;;;;;;2.34;90.44;100374.53;1903601;75;21051;-64
2022/01/18 09:29:10;;;;;;;2.58;1.40;;;;;;;2.32;90.55;100381.04;1914644;75;21498;-64
2022/01/18 09:31:39;;;;;;;3.10;1.55;;;;;;;2.34;90.53;100387.53;1914635;75;21048;-62
2022/01/18 09:34:08;;;;;;;2.87;1.60;;;;;;;2.34;90.54;100396.62;1914628;75;21474;-61
2022/01/18 09:36:37;;;;;;;2.30;1.50;;;;;;;2.37;90.56;100397.45;1896673;75;21726;-61
2022/01/18 09:39:06;;;;;;;2.98;1.40;;;;;;;2.38;90.61;100401.78;1914645;75;21118;-63
2022/01/18 09:41:39;;;;;;;2.75;1.57;;;;;;;2.41;90.59;100398.28;1914812;75;21423;-64
2022/01/18 09:44:06;;;;;;;4.08;1.62;;;;;;;2.45;90.63;100412.95;1914470;75;21040;-61
2022/01/18 09:46:35;;;;;;;3.85;2.02;;;;;;;2.50;90.57;100407.27;1902267;75;21031;-64
2022/01/18 09:49:05;;;;;;;4.87;2.30;;;;;;;2.53;90.54;100412.86;1882161;76;21157;-61
2022/01/18 09:51:34;;;;;;;2.45;1.75;;;;;;;2.53;90.68;100413.75;1882155;76;21484;-64
2022/01/18 09:54:03;;;;;;;2.62;1.62;;;;;;;2.56;90.72;100418.89;1882149;76;21056;-62
2022/01/18 09:56:32;;;;;;;4.40;1.62;;;;;;;2.56;90.66;100423.23;1882289;75;21137;-61
2022/01/18 09:59:01;;;;;;;4.35;2.10;;;;;;;2.52;90.68;100414.61;1882154;76;21015;-61
2022/01/18 10:01:30;;;;;;;3.75;2.08;;;;;;;2.48;90.75;100411.18;1896791;75;21493;-62
2022/01/18 10:04:23;;;;;;;4.83;2.20;;;;;;;2.48;90.84;100415.08;1912240;75;21399;-63
2022/01/18 10:06:57;;;;;;;2.92;1.90;;;;;;;2.55;90.88;100417.63;1914641;75;21060;-62
2022/01/18 10:09:27;;;;;;;6.08;1.82;;;;;;;2.62;90.94;100414.94;1914787;75;21067;-60
2022/01/18 10:12:05;;;;;;;11.38;3.40;;;;;;;2.75;90.94;100421.27;1912341;75;21000;-61
2022/01/18 10:14:36;;;;;;;5.62;2.55;;;;;;;2.82;91.02;100425.52;1914659;75;21120;-60
2022/01/18 10:17:06;;;;;;;3.62;2.15;;;;;;;2.87;91.01;100423.73;1914742;74;21044;-63
2022/01/18 10:19:40;;;;;;;6.92;2.40;;;;;;;2.92;91.02;100431.05;1914694;75;21067;-63
2022/01/18 10:22:12;;;;;;;4.92;3.10;;;;;;;2.96;91.07;100435.32;1905782;75;21186;-60
2022/01/18 10:24:43;;;;;;;3.55;2.00;;;;;;;3.00;90.98;100421.84;1872576;77;21123;-60
2022/01/18 10:27:13;;;;;;;4.80;2.60;;;;;;;2.95;90.98;100432.31;1872684;77;21470;-59
2022/01/18 10:29:48;;;;;;;14.55;6.30;;;;;;;2.98;91.00;100437.91;1872795;77;21012;-60
2022/01/18 10:37:33;;;;;;;5.20;1.70;;;;;;;3.02;90.94;100437.83;1872611;77;21044;-60
2022/01/18 10:40:03;;;;;;;5.28;1.70;;;;;;;3.03;90.91;100446.08;1871805;75;21076;-60
2022/01/18 10:42:52;;;;;;;2.27;1.62;;;;;;;3.02;90.78;100438.28;1872794;76;21040;-60
2022/01/18 10:45:35;;;;;;;2.10;1.40;;;;;;;3.02;90.63;100444.34;1874764;75;21000;-62
2022/01/18 10:48:10;;;;;;;5.60;1.70;;;;;;;2.98;90.56;100460.87;1872708;77;21129;-59
2022/01/18 10:50:38;;;;;;;3.22;1.50;;;;;;;2.98;90.50;100458.72;1872086;76;21176;-60
2022/01/18 10:53:18;;;;;;;5.45;1.70;;;;;;;2.92;90.53;100458.36;1872604;77;21059;-61
2022/01/18 10:55:49;;;;;;;6.15;1.60;;;;;;;2.89;90.52;100462.28;1872504;77;21112;-62
2022/01/18 10:58:21;;;;;;;4.72;1.40;;;;;;;2.84;90.50;100464.06;1874594;75;21438;-60
2022/01/18 11:00:50;;;;;;;7.12;2.70;;;;;;;2.88;90.41;100463.18;1872561;77;21044;-61
2022/01/18 11:03:19;;;;;;;4.90;2.17;;;;;;;2.90;90.37;100473.12;1879318;75;21455;-59
2022/01/18 11:06:43;;;;;;;4.15;1.52;;;;;;;2.87;90.39;100467.95;1891511;75;21454;-57
2022/01/18 11:08:49;;;;;;;5.30;1.30;;;;;;;2.89;90.31;100479.19;1892611;74;21121;-56
2022/01/18 11:11:28;;;;;;;4.87;1.85;;;;;;;2.87;90.27;100483.55;1902008;74;21187;-57
2022/01/18 11:14:01;;;;;;;3.55;1.50;;;;;;;2.89;90.32;100475.28;1975309;72;21084;-56
2022/01/18 11:16:30;;;;;;;5.92;1.70;;;;;;;3.12;90.23;100479.34;1978251;72;21040;-57
2022/01/18 11:18:59;;;;;;;6.28;1.72;;;;;;;3.29;90.11;100490.41;1928941;74;21059;-58
2022/01/18 11:21:29;;;;;;;6.70;2.55;;;;;;;3.50;89.99;100479.28;1929015;74;21512;-60
2022/01/18 11:23:59;;;;;;;5.42;2.20;;;;;;;3.52;90.02;100484.02;1951498;72;21137;-59
2022/01/18 11:26:29;;;;;;;4.47;1.40;;;;;;;3.45;90.06;100488.02;1960334;72;21160;-60
2022/01/18 11:28:59;;;;;;;2.85;1.40;;;;;;;3.48;89.98;100490.56;1967483;73;21484;-59
2022/01/18 11:31:28;;;;;;;3.12;1.40;;;;;;;3.50;89.64;100507.92;1966751;73;21050;-61
2022/01/18 11:33:59;;;;;;;3.85;1.15;;;;;;;3.46;89.28;100502.74;1958513;73;21500;-60
2022/01/18 11:36:32;;;;;;;4.40;1.32;;;;;;;3.43;89.06;100518.42;1958419;73;21112;-65
2022/01/18 11:39:04;;;;;;;7.03;1.47;;;;;;;3.38;88.90;100528.03;1960812;71;21010;-61
2022/01/18 11:41:35;;;;;;;2.40;1.30;;;;;;;3.33;88.71;100533.72;2006313;71;21149;-62
2022/01/18 11:44:16;;;;;;;5.45;1.70;;;;;;;3.25;88.60;100535.58;1958557;72;21046;-63
2022/01/18 11:46:55;;;;;;;2.80;1.45;;;;;;;3.18;88.52;100554.73;1962405;73;21050;-60
2022/01/18 11:49:27;;;;;;;2.47;1.52;;;;;;;3.13;88.37;100554.77;1975635;71;21022;-61
2022/01/18 11:52:06;;;;;;;3.35;1.32;;;;;;;3.04;88.25;100537.55;1968486;73;21026;-63
2022/01/18 11:57:29;;;;;;;3.10;1.20;;;;;;;2.93;88.14;100549.78;1967512;73;21031;-61
2022/01/18 12:00:00;;;;;;;3.92;1.35;;;;;;;2.88;88.13;100551.59;1968322;71;21046;-59
2022/01/18 12:02:42;;;;;;;5.55;1.52;;;;;;;2.82;88.14;100559.02;1962080;72;21409;-58
2022/01/18 12:05:24;;;;;;;3.87;1.70;;;;;;;2.78;88.11;100569.45;1968003;71;21085;-59
2022/01/18 12:07:58;;;;;;;3.90;1.77;;;;;;;2.77;88.07;100559.95;1954742;71;21137;-61
2022/01/18 12:10:42;;;;;;;4.70;1.50;;;;;;;2.75;88.04;100555.17;1918434;74;21037;-61
2022/01/18 12:13:05;;;;;;;3.77;1.62;;;;;;;2.76;88.00;100559.52;1923207;74;21070;-61
2022/01/18 12:15:38;;;;;;;5.75;2.77;;;;;;;2.75;87.92;100552.16;1924948;74;21133;-63
2022/01/18 12:18:19;;;;;;;8.83;3.55;;;;;;;2.75;87.89;100556.48;1925884;74;21064;-62
2022/01/18 12:20:50;;;;;;;5.30;2.50;;;;;;;2.70;87.83;100570.39;1920743;74;21459;-62
2022/01/18 12:23:24;;;;;;;9.25;4.00;;;;;;;2.66;87.88;100577.80;1898385;74;21019;-62
2022/01/18 12:26:16;;;;;;;5.72;2.62;;;;;;;2.67;87.80;100591.66;1916282;74;21061;-58
2022/01/18 12:34:35;;;;;;;5.03;2.17;;;;;;;2.62;87.53;100621.61;1920962;74;21132;-60
2022/01/18 12:37:19;;;;;;;2.65;1.40;;;;;;;2.59;87.42;100635.91;1925163;74;21051;-59
2022/01/18 12:45:13;;;;;;;5.67;1.65;;;;;;;2.56;87.34;100655.42;1925787;74;21145;-61
2022/01/18 12:47:59;;;;;;;7.42;1.90;;;;;;;2.55;87.31;100646.36;1925710;74;21207;-60
2022/01/18 12:50:33;;;;;;;3.17;1.50;;;;;;;2.62;87.28;100654.52;1917654;73;21170;-61
2022/01/18 12:53:07;;;;;;;4.78;1.50;;;;;;;2.63;87.20;100655.80;1930568;74;21018;-59
2022/01/18 12:55:48;;;;;;;3.15;1.65;;;;;;;2.63;87.17;100659.70;1931385;74;21458;-61
2022/01/18 12:58:20;;;;;;;4.90;1.62;;;;;;;2.64;87.15;100657.99;1924209;74;21015;-61
2022/01/18 13:00:54;;;;;;;3.30;1.30;;;;;;;2.66;87.12;100661.44;1924183;74;21113;-62
2022/01/18 13:03:27;;;;;;;5.65;1.37;;;;;;;2.66;87.09;100666.19;1924869;74;21565;-63
2022/01/18 13:06:20;;;;;;;3.55;1.32;;;;;;;2.67;87.13;100678.33;1901539;74;21084;-62
2022/01/18 13:08:54;;;;;;;4.00;1.57;;;;;;;2.68;87.11;100692.19;1876476;76;21049;-61
2022/01/18 13:11:28;;;;;;;3.55;1.45;;;;;;;2.67;87.12;100699.13;1885232;76;21050;-59
2022/01/18 13:14:07;;;;;;;4.00;1.30;;;;;;;2.65;87.15;100705.20;1900422;74;21068;-61
2022/01/18 13:25:04;;;;;;;3.37;1.40;;;;;;;2.70;87.18;100725.53;1865610;77;21170;-58
2022/01/18 13:27:27;;;;;;;4.72;1.40;;;;;;;2.70;87.11;100721.19;1882124;76;21159;-58
2022/01/18 13:29:53;;;;;;;3.87;1.85;;;;;;;2.68;87.10;100722.94;1897966;75;21052;-58
2022/01/18 13:32:30;;;;;;;3.25;1.10;;;;;;;2.69;87.08;100728.58;1885125;76;21145;-59